sensor_id;sensor_type;location;lat;lon;timestamp;temperature;humidity
5631;DHT22;2837;50.990;7.124;2023-04-25T05:01:18;9.80;99.90
5631;DHT22;2837;50.990;7.124;2023-04-25T05:03:44;9.80;99.90
5631;DHT22;2837;50.990;7.124;2023-04-25T05:06:09;10.30;99.90
5631;DHT22;2837;50.990;7.124;2023-04-25T05:08:36;9.90;99.90
5631;DHT22;2837;50.990;7.124;2023-04-25T05:11:03;9.90;99.90
5631;DHT22;2837;50.990;7.124;2023-04-25T05:13:28;9.80;99.90
5631;DHT22;2837;50.990;7.124;2023-04-25T05:15:54;10.00;99.90
5631;DHT22;2837;50.990;7.124;2023-04-25T05:18:20;10.90;99.90
5631;DHT22;2837;50.990;7.124;2023-04-25T05:20:45;9.90;99.90
5631;DHT22;2837;50.990;7.124;2023-04-25T05:23:11;9.90;99.90
5631;DHT22;2837;50.990;7.124;2023-04-25T05:25:36;9.90;99.90
5631;DHT22;2837;50.990;7.124;2023-04-25T05:28:02;9.90;99.90
5631;DHT22;2837;50.990;7.124;2023-04-25T05:30:28;9.90;99.90
5631;DHT22;2837;50.990;7.124;2023-04-25T05:32:53;9.90;99.90
5631;DHT22;2837;50.990;7.124;2023-04-25T05:35:19;9.90;99.90
5631;DHT22;2837;50.990;7.124;2023-04-25T05:37:44;10.00;99.90
5631;DHT22;2837;50.990;7.124;2023-04-25T05:40:10;10.00;99.90
5631;DHT22;2837;50.990;7.124;2023-04-25T05:42:36;10.00;99.90
5631;DHT22;2837;50.990;7.124;2023-04-25T05:45:02;10.00;99.90
5631;DHT22;2837;50.990;7.124;2023-04-25T05:47:27;10.10;99.90
5631;DHT22;2837;50.990;7.124;2023-04-25T05:49:53;10.10;99.90
5631;DHT22;2837;50.990;7.124;2023-04-25T05:52:18;10.10;99.90
5631;DHT22;2837;50.990;7.124;2023-04-25T05:54:44;10.10;99.90
5631;DHT22;2837;50.990;7.124;2023-04-25T05:57:24;10.00;99.90
5631;DHT22;2837;50.990;7.124;2023-04-25T05:59:50;10.00;99.90
5631;DHT22;2837;50.990;7.124;2023-04-25T06:02:17;10.10;99.90
5631;DHT22;2837;50.990;7.124;2023-04-25T06:04:43;10.10;99.90
5631;DHT22;2837;50.990;7.124;2023-04-25T06:07:08;10.10;99.90
5631;DHT22;2837;50.990;7.124;2023-04-25T06:09:34;10.10;99.90
5631;DHT22;2837;50.990;7.124;2023-04-25T06:12:00;10.10;99.90
5631;DHT22;2837;50.990;7.124;2023-04-25T06:14:26;10.10;99.90
5631;DHT22;2837;50.990;7.124;2023-04-25T06:16:52;10.10;99.90
5631;DHT22;2837;50.990;7.124;2023-04-25T06:19:17;10.10;99.90
5631;DHT22;2837;50.990;7.124;2023-04-25T06:21:44;10.10;99.90
5631;DHT22;2837;50.990;7.124;2023-04-25T06:24:09;10.10;99.90
5631;DHT22;2837;50.990;7.124;2023-04-25T06:26:35;10.10;99.90
5631;DHT22;2837;50.990;7.124;2023-04-25T06:29:01;10.10;99.90
5631;DHT22;2837;50.990;7.124;2023-04-25T06:31:27;10.10;99.90
5631;DHT22;2837;50.990;7.124;2023-04-25T06:33:54;10.10;99.90
5631;DHT22;2837;50.990;7.124;2023-04-25T06:36:20;10.10;99.90
5631;DHT22;2837;50.990;7.124;2023-04-25T06:38:50;10.10;99.90
5631;DHT22;2837;50.990;7.124;2023-04-25T06:41:17;10.10;99.90
5631;DHT22;2837;50.990;7.124;2023-04-25T06:43:42;10.20;99.90
5631;DHT22;2837;50.990;7.124;2023-04-25T06:46:08;10.20;99.90
5631;DHT22;2837;50.990;7.124;2023-04-25T06:48:33;10.20;99.90
5631;DHT22;2837;50.990;7.124;2023-04-25T06:50:59;10.20;99.90
5631;DHT22;2837;50.990;7.124;2023-04-25T06:53:24;10.30;99.90
5631;DHT22;2837;50.990;7.124;2023-04-25T06:55:50;10.20;99.90
5631;DHT22;2837;50.990;7.124;2023-04-25T06:58:15;10.30;99.90
5631;DHT22;2837;50.990;7.124;2023-04-25T07:00:41;10.30;99.90
5631;DHT22;2837;50.990;7.124;2023-04-25T07:03:07;10.30;99.90
5631;DHT22;2837;50.990;7.124;2023-04-25T07:05:32;11.20;99.90
5631;DHT22;2837;50.990;7.124;2023-04-25T07:07:58;10.40;99.90
5631;DHT22;2837;50.990;7.124;2023-04-25T07:10:24;10.70;99.90
5631;DHT22;2837;50.990;7.124;2023-04-25T07:12:50;10.40;99.90
5631;DHT22;2837;50.990;7.124;2023-04-25T07:15:16;10.30;99.90
5631;DHT22;2837;50.990;7.124;2023-04-25T07:17:41;10.30;99.90
5631;DHT22;2837;50.990;7.124;2023-04-25T07:20:08;10.40;99.90
5631;DHT22;2837;50.990;7.124;2023-04-25T07:22:34;10.40;99.90
5631;DHT22;2837;50.990;7.124;2023-04-25T07:25:00;10.40;99.90
5631;DHT22;2837;50.990;7.124;2023-04-25T07:27:26;10.40;99.90
5631;DHT22;2837;50.990;7.124;2023-04-25T07:29:51;10.30;99.90
5631;DHT22;2837;50.990;7.124;2023-04-25T07:32:17;10.20;99.90
5631;DHT22;2837;50.990;7.124;2023-04-25T07:34:42;10.20;99.90
5631;DHT22;2837;50.990;7.124;2023-04-25T07:37:08;10.30;99.90
5631;DHT22;2837;50.990;7.124;2023-04-25T07:39:34;10.50;99.90
5631;DHT22;2837;50.990;7.124;2023-04-25T07:42:00;10.50;99.90
5631;DHT22;2837;50.990;7.124;2023-04-25T07:44:27;10.50;99.90
5631;DHT22;2837;50.990;7.124;2023-04-25T07:46:53;10.60;99.90
5631;DHT22;2837;50.990;7.124;2023-04-25T07:49:18;10.60;99.90
5631;DHT22;2837;50.990;7.124;2023-04-25T07:51:44;10.70;99.90
5631;DHT22;2837;50.990;7.124;2023-04-25T07:54:13;10.70;99.90
5631;DHT22;2837;50.990;7.124;2023-04-25T07:56:39;10.80;99.90
5631;DHT22;2837;50.990;7.124;2023-04-25T07:59:04;10.70;99.90
5631;DHT22;2837;50.990;7.124;2023-04-25T08:01:30;10.70;99.90
5631;DHT22;2837;50.990;7.124;2023-04-25T08:03:56;10.60;99.90
5631;DHT22;2837;50.990;7.124;2023-04-25T08:06:21;10.70;99.90
5631;DHT22;2837;50.990;7.124;2023-04-25T08:08:47;10.70;99.90
5631;DHT22;2837;50.990;7.124;2023-04-25T08:11:12;10.80;99.90
5631;DHT22;2837;50.990;7.124;2023-04-25T08:13:38;10.80;99.90
5631;DHT22;2837;50.990;7.124;2023-04-25T08:16:03;11.00;99.90
5631;DHT22;2837;50.990;7.124;2023-04-25T08:18:29;10.90;99.90
5631;DHT22;2837;50.990;7.124;2023-04-25T08:20:56;10.90;99.90
5631;DHT22;2837;50.990;7.124;2023-04-25T08:23:21;10.90;98.30
5631;DHT22;2837;50.990;7.124;2023-04-25T08:25:47;10.80;93.40
5631;DHT22;2837;50.990;7.124;2023-04-25T08:28:12;10.80;99.90
5631;DHT22;2837;50.990;7.124;2023-04-25T08:30:38;10.90;99.90
5631;DHT22;2837;50.990;7.124;2023-04-25T08:33:03;11.00;99.90
5631;DHT22;2837;50.990;7.124;2023-04-25T08:35:29;10.90;99.90
5631;DHT22;2837;50.990;7.124;2023-04-25T08:37:54;11.00;99.90
5631;DHT22;2837;50.990;7.124;2023-04-25T08:40:22;10.90;99.90
5631;DHT22;2837;50.990;7.124;2023-04-25T08:42:52;10.90;99.90
5631;DHT22;2837;50.990;7.124;2023-04-25T08:45:18;10.90;99.90
5631;DHT22;2837;50.990;7.124;2023-04-25T08:47:45;10.90;99.90
5631;DHT22;2837;50.990;7.124;2023-04-25T08:50:11;10.90;99.90
5631;DHT22;2837;50.990;7.124;2023-04-25T08:52:43;10.90;99.90
5631;DHT22;2837;50.990;7.124;2023-04-25T08:55:09;10.90;99.40
5631;DHT22;2837;50.990;7.124;2023-04-25T08:57:37;10.80;99.90
5631;DHT22;2837;50.990;7.124;2023-04-25T09:00:03;10.90;99.90
5631;DHT22;2837;50.990;7.124;2023-04-25T09:02:29;10.80;99.90
5631;DHT22;2837;50.990;7.124;2023-04-25T09:04:55;11.40;99.90
5631;DHT22;2837;50.990;7.124;2023-04-25T09:07:21;10.90;99.90
5631;DHT22;2837;50.990;7.124;2023-04-25T09:09:47;10.90;99.90
5631;DHT22;2837;50.990;7.124;2023-04-25T09:12:13;11.00;99.90
5631;DHT22;2837;50.990;7.124;2023-04-25T09:14:38;11.00;99.90
5631;DHT22;2837;50.990;7.124;2023-04-25T09:17:05;11.00;99.90
5631;DHT22;2837;50.990;7.124;2023-04-25T09:19:34;11.00;99.90
5631;DHT22;2837;50.990;7.124;2023-04-25T09:22:02;11.00;99.90
5631;DHT22;2837;50.990;7.124;2023-04-25T09:24:38;11.00;99.90
5631;DHT22;2837;50.990;7.124;2023-04-25T09:27:05;11.00;99.90
5631;DHT22;2837;50.990;7.124;2023-04-25T09:29:33;11.10;99.90
5631;DHT22;2837;50.990;7.124;2023-04-25T09:32:28;11.20;99.90
5631;DHT22;2837;50.990;7.124;2023-04-25T09:34:55;11.20;99.90
5631;DHT22;2837;50.990;7.124;2023-04-25T09:39:58;11.30;99.90
5631;DHT22;2837;50.990;7.124;2023-04-25T09:42:26;11.30;99.90
5631;DHT22;2837;50.990;7.124;2023-04-25T09:44:54;11.20;98.20
5631;DHT22;2837;50.990;7.124;2023-04-25T09:47:22;11.30;99.90
5631;DHT22;2837;50.990;7.124;2023-04-25T09:49:48;11.30;96.00
5631;DHT22;2837;50.990;7.124;2023-04-25T09:52:20;11.50;98.50
5631;DHT22;2837;50.990;7.124;2023-04-25T09:54:46;11.20;96.20
5631;DHT22;2837;50.990;7.124;2023-04-25T09:57:16;11.20;99.40
5631;DHT22;2837;50.990;7.124;2023-04-25T10:00:02;11.20;99.90
5631;DHT22;2837;50.990;7.124;2023-04-25T10:02:31;11.30;99.90
5631;DHT22;2837;50.990;7.124;2023-04-25T10:04:57;11.40;99.90
5631;DHT22;2837;50.990;7.124;2023-04-25T10:07:28;11.70;99.90
5631;DHT22;2837;50.990;7.124;2023-04-25T10:10:00;11.50;99.90
5631;DHT22;2837;50.990;7.124;2023-04-25T10:12:28;11.50;99.90
5631;DHT22;2837;50.990;7.124;2023-04-25T10:14:54;11.60;99.90
5631;DHT22;2837;50.990;7.124;2023-04-25T10:17:20;11.60;94.60
5631;DHT22;2837;50.990;7.124;2023-04-25T10:19:47;12.00;98.50
5631;DHT22;2837;50.990;7.124;2023-04-25T10:22:26;11.50;99.90
5631;DHT22;2837;50.990;7.124;2023-04-25T10:24:55;11.60;91.60
5631;DHT22;2837;50.990;7.124;2023-04-25T10:27:22;11.60;94.10
5631;DHT22;2837;50.990;7.124;2023-04-25T10:30:00;12.40;97.40
5631;DHT22;2837;50.990;7.124;2023-04-25T10:32:27;11.70;97.00
5631;DHT22;2837;50.990;7.124;2023-04-25T10:34:54;11.70;75.60
5631;DHT22;2837;50.990;7.124;2023-04-25T10:37:19;12.10;70.20
5631;DHT22;2837;50.990;7.124;2023-04-25T10:39:45;12.20;67.90
5631;DHT22;2837;50.990;7.124;2023-04-25T10:42:12;11.60;68.30
5631;DHT22;2837;50.990;7.124;2023-04-25T10:44:38;12.40;69.80
5631;DHT22;2837;50.990;7.124;2023-04-25T10:47:08;11.70;74.10
5631;DHT22;2837;50.990;7.124;2023-04-25T10:49:36;12.70;75.90
5631;DHT22;2837;50.990;7.124;2023-04-25T10:52:24;11.80;75.70
5631;DHT22;2837;50.990;7.124;2023-04-25T10:54:55;11.70;71.00
5631;DHT22;2837;50.990;7.124;2023-04-25T10:57:32;11.60;67.60
5631;DHT22;2837;50.990;7.124;2023-04-25T11:00:12;11.60;68.90
5631;DHT22;2837;50.990;7.124;2023-04-25T11:02:46;11.30;97.50
5631;DHT22;2837;50.990;7.124;2023-04-25T11:05:33;11.20;99.90
5631;DHT22;2837;50.990;7.124;2023-04-25T11:08:00;11.00;99.90
5631;DHT22;2837;50.990;7.124;2023-04-25T11:10:33;11.00;99.90
5631;DHT22;2837;50.990;7.124;2023-04-25T11:13:02;11.00;99.90
5631;DHT22;2837;50.990;7.124;2023-04-25T11:15:28;11.10;99.90
5631;DHT22;2837;50.990;7.124;2023-04-25T11:17:54;11.20;99.90
5631;DHT22;2837;50.990;7.124;2023-04-25T11:20:21;11.20;87.50
5631;DHT22;2837;50.990;7.124;2023-04-25T11:22:48;11.30;82.50
5631;DHT22;2837;50.990;7.124;2023-04-25T11:25:15;11.30;77.70
5631;DHT22;2837;50.990;7.124;2023-04-25T11:27:55;11.40;76.80
5631;DHT22;2837;50.990;7.124;2023-04-25T11:30:23;11.60;75.00
5631;DHT22;2837;50.990;7.124;2023-04-25T11:32:49;11.40;75.00
5631;DHT22;2837;50.990;7.124;2023-04-25T11:35:15;11.50;70.70
5631;DHT22;2837;50.990;7.124;2023-04-25T11:37:42;11.60;72.90
5631;DHT22;2837;50.990;7.124;2023-04-25T11:40:09;11.70;71.70
5631;DHT22;2837;50.990;7.124;2023-04-25T11:42:43;11.70;65.20
5631;DHT22;2837;50.990;7.124;2023-04-25T11:45:09;11.70;67.00
5631;DHT22;2837;50.990;7.124;2023-04-25T11:47:35;11.70;66.10
5631;DHT22;2837;50.990;7.124;2023-04-25T11:50:06;11.80;63.60
5631;DHT22;2837;50.990;7.124;2023-04-25T11:52:40;11.80;63.00
5631;DHT22;2837;50.990;7.124;2023-04-25T11:55:14;11.80;62.30
5631;DHT22;2837;50.990;7.124;2023-04-25T11:57:40;11.70;62.20
5631;DHT22;2837;50.990;7.124;2023-04-25T12:00:17;11.70;60.10
5631;DHT22;2837;50.990;7.124;2023-04-25T12:02:45;11.70;60.90
5631;DHT22;2837;50.990;7.124;2023-04-25T12:05:13;11.70;58.60
5631;DHT22;2837;50.990;7.124;2023-04-25T12:07:39;11.60;58.70
5631;DHT22;2837;50.990;7.124;2023-04-25T12:10:11;11.60;56.70
5631;DHT22;2837;50.990;7.124;2023-04-25T12:12:37;11.60;55.40
5631;DHT22;2837;50.990;7.124;2023-04-25T12:15:15;11.60;55.70
5631;DHT22;2837;50.990;7.124;2023-04-25T12:17:45;11.60;55.70
5631;DHT22;2837;50.990;7.124;2023-04-25T12:20:16;11.70;57.00
5631;DHT22;2837;50.990;7.124;2023-04-25T12:22:46;11.70;59.40
5631;DHT22;2837;50.990;7.124;2023-04-25T12:25:13;11.70;55.70
5631;DHT22;2837;50.990;7.124;2023-04-25T12:27:40;11.80;58.00
5631;DHT22;2837;50.990;7.124;2023-04-25T12:30:09;11.90;59.00
5631;DHT22;2837;50.990;7.124;2023-04-25T12:32:36;12.00;56.50
5631;DHT22;2837;50.990;7.124;2023-04-25T12:35:04;12.00;56.60
5631;DHT22;2837;50.990;7.124;2023-04-25T12:37:29;12.10;58.20
5631;DHT22;2837;50.990;7.124;2023-04-25T12:39:56;12.20;59.60
5631;DHT22;2837;50.990;7.124;2023-04-25T12:42:21;12.40;56.10
5631;DHT22;2837;50.990;7.124;2023-04-25T12:44:47;12.40;58.40
5631;DHT22;2837;50.990;7.124;2023-04-25T12:47:12;12.40;60.20
5631;DHT22;2837;50.990;7.124;2023-04-25T12:49:39;12.40;58.20
5631;DHT22;2837;50.990;7.124;2023-04-25T12:52:04;12.40;56.20
5631;DHT22;2837;50.990;7.124;2023-04-25T12:54:30;12.60;57.60
5631;DHT22;2837;50.990;7.124;2023-04-25T12:56:56;12.60;58.00
5631;DHT22;2837;50.990;7.124;2023-04-25T12:59:22;12.70;57.40
5631;DHT22;2837;50.990;7.124;2023-04-25T13:01:48;12.60;54.50
5631;DHT22;2837;50.990;7.124;2023-04-25T13:04:14;12.60;55.10
5631;DHT22;2837;50.990;7.124;2023-04-25T13:06:40;12.60;55.70
5631;DHT22;2837;50.990;7.124;2023-04-25T13:09:06;12.60;56.10
5631;DHT22;2837;50.990;7.124;2023-04-25T13:11:32;12.50;56.70
5631;DHT22;2837;50.990;7.124;2023-04-25T13:13:57;12.50;56.50
5631;DHT22;2837;50.990;7.124;2023-04-25T13:16:23;12.50;57.80
5631;DHT22;2837;50.990;7.124;2023-04-25T13:18:48;12.40;56.90
5631;DHT22;2837;50.990;7.124;2023-04-25T13:21:14;12.30;57.50
5631;DHT22;2837;50.990;7.124;2023-04-25T13:23:40;12.30;56.50
5631;DHT22;2837;50.990;7.124;2023-04-25T13:26:08;12.30;56.20
5631;DHT22;2837;50.990;7.124;2023-04-25T13:28:33;12.50;55.10
5631;DHT22;2837;50.990;7.124;2023-04-25T13:30:59;12.30;57.20
5631;DHT22;2837;50.990;7.124;2023-04-25T13:33:24;12.30;57.60
5631;DHT22;2837;50.990;7.124;2023-04-25T13:35:51;12.40;59.80
5631;DHT22;2837;50.990;7.124;2023-04-25T13:38:23;12.40;61.60
5631;DHT22;2837;50.990;7.124;2023-04-25T13:40:50;12.40;63.90
5631;DHT22;2837;50.990;7.124;2023-04-25T13:43:20;12.40;66.20
5631;DHT22;2837;50.990;7.124;2023-04-25T13:45:49;12.30;69.20
5631;DHT22;2837;50.990;7.124;2023-04-25T13:48:15;12.30;72.80
5631;DHT22;2837;50.990;7.124;2023-04-25T13:50:41;12.10;72.80
5631;DHT22;2837;50.990;7.124;2023-04-25T13:53:07;12.10;71.90
5631;DHT22;2837;50.990;7.124;2023-04-25T13:55:34;12.00;75.30
5631;DHT22;2837;50.990;7.124;2023-04-25T13:58:00;12.10;74.20
5631;DHT22;2837;50.990;7.124;2023-04-25T14:00:32;12.00;72.00
5631;DHT22;2837;50.990;7.124;2023-04-25T14:02:58;11.90;71.70
5631;DHT22;2837;50.990;7.124;2023-04-25T14:05:23;11.90;71.20
5631;DHT22;2837;50.990;7.124;2023-04-25T14:07:49;11.80;70.80
5631;DHT22;2837;50.990;7.124;2023-04-25T14:10:15;11.80;73.40
5631;DHT22;2837;50.990;7.124;2023-04-25T14:12:41;11.80;75.30
5631;DHT22;2837;50.990;7.124;2023-04-25T14:15:06;11.80;78.90
5631;DHT22;2837;50.990;7.124;2023-04-25T14:17:32;11.90;71.20
5631;DHT22;2837;50.990;7.124;2023-04-25T14:19:57;12.00;71.10
5631;DHT22;2837;50.990;7.124;2023-04-25T14:22:23;12.10;74.80
5631;DHT22;2837;50.990;7.124;2023-04-25T14:24:49;12.20;73.60
5631;DHT22;2837;50.990;7.124;2023-04-25T14:27:14;12.20;69.20
5631;DHT22;2837;50.990;7.124;2023-04-25T14:29:40;12.20;66.10
5631;DHT22;2837;50.990;7.124;2023-04-25T14:32:05;12.20;65.90
5631;DHT22;2837;50.990;7.124;2023-04-25T14:34:31;12.20;65.50
5631;DHT22;2837;50.990;7.124;2023-04-25T14:36:57;12.20;66.70
5631;DHT22;2837;50.990;7.124;2023-04-25T14:39:22;12.20;65.70
5631;DHT22;2837;50.990;7.124;2023-04-25T14:41:48;12.20;65.70
5631;DHT22;2837;50.990;7.124;2023-04-25T14:44:13;12.30;62.50
5631;DHT22;2837;50.990;7.124;2023-04-25T14:46:39;12.30;62.60
5631;DHT22;2837;50.990;7.124;2023-04-25T14:49:04;12.60;60.50
5631;DHT22;2837;50.990;7.124;2023-04-25T14:51:30;12.20;59.20
5631;DHT22;2837;50.990;7.124;2023-04-25T14:53:56;12.20;61.60
5631;DHT22;2837;50.990;7.124;2023-04-25T14:56:22;12.20;59.50
5631;DHT22;2837;50.990;7.124;2023-04-25T14:58:47;12.20;57.80
5631;DHT22;2837;50.990;7.124;2023-04-25T15:01:13;12.10;56.10
5631;DHT22;2837;50.990;7.124;2023-04-25T15:03:42;12.20;57.00
5631;DHT22;2837;50.990;7.124;2023-04-25T15:06:08;12.00;58.00
5631;DHT22;2837;50.990;7.124;2023-04-25T15:08:33;12.10;58.00
5631;DHT22;2837;50.990;7.124;2023-04-25T15:11:00;12.00;58.40
5631;DHT22;2837;50.990;7.124;2023-04-25T15:13:27;12.00;61.20
5631;DHT22;2837;50.990;7.124;2023-04-25T15:15:53;11.90;63.30
5631;DHT22;2837;50.990;7.124;2023-04-25T15:18:20;12.20;65.40
5631;DHT22;2837;50.990;7.124;2023-04-25T15:20:50;11.90;64.00
5631;DHT22;2837;50.990;7.124;2023-04-25T15:23:17;11.80;65.20
5631;DHT22;2837;50.990;7.124;2023-04-25T15:25:43;11.80;66.00
5631;DHT22;2837;50.990;7.124;2023-04-25T15:28:08;11.70;64.00
5631;DHT22;2837;50.990;7.124;2023-04-25T15:30:34;11.70;63.30
5631;DHT22;2837;50.990;7.124;2023-04-25T15:32:59;11.70;64.50
5631;DHT22;2837;50.990;7.124;2023-04-25T15:35:25;11.70;65.30
5631;DHT22;2837;50.990;7.124;2023-04-25T15:37:51;11.70;66.60
5631;DHT22;2837;50.990;7.124;2023-04-25T15:40:17;11.70;66.70
5631;DHT22;2837;50.990;7.124;2023-04-25T15:42:45;11.80;67.00
5631;DHT22;2837;50.990;7.124;2023-04-25T15:45:16;11.80;67.80
5631;DHT22;2837;50.990;7.124;2023-04-25T15:47:42;11.80;65.90
5631;DHT22;2837;50.990;7.124;2023-04-25T15:50:08;11.80;65.70
5631;DHT22;2837;50.990;7.124;2023-04-25T15:52:35;11.80;67.60
5631;DHT22;2837;50.990;7.124;2023-04-25T15:55:01;11.80;67.20
5631;DHT22;2837;50.990;7.124;2023-04-25T15:57:29;11.90;67.40
5631;DHT22;2837;50.990;7.124;2023-04-25T15:59:55;11.90;67.60
5631;DHT22;2837;50.990;7.124;2023-04-25T16:02:21;11.90;66.60
5631;DHT22;2837;50.990;7.124;2023-04-25T16:04:46;11.90;66.40
5631;DHT22;2837;50.990;7.124;2023-04-25T16:07:13;11.90;68.10
5631;DHT22;2837;50.990;7.124;2023-04-25T16:09:39;11.90;71.80
5631;DHT22;2837;50.990;7.124;2023-04-25T16:12:05;12.00;71.70
5631;DHT22;2837;50.990;7.124;2023-04-25T16:14:32;12.10;68.90
5631;DHT22;2837;50.990;7.124;2023-04-25T16:16:58;12.20;67.70
5631;DHT22;2837;50.990;7.124;2023-04-25T16:19:23;12.20;67.20
5631;DHT22;2837;50.990;7.124;2023-04-25T16:21:49;12.20;65.40
5631;DHT22;2837;50.990;7.124;2023-04-25T16:24:14;12.10;63.40
5631;DHT22;2837;50.990;7.124;2023-04-25T16:26:40;12.10;62.90
5631;DHT22;2837;50.990;7.124;2023-04-25T16:29:07;12.00;64.40
5631;DHT22;2837;50.990;7.124;2023-04-25T16:31:36;12.00;65.00
5631;DHT22;2837;50.990;7.124;2023-04-25T16:34:02;12.10;63.70
5631;DHT22;2837;50.990;7.124;2023-04-25T16:36:28;12.10;64.60
5631;DHT22;2837;50.990;7.124;2023-04-25T16:38:54;12.20;64.80
5631;DHT22;2837;50.990;7.124;2023-04-25T16:41:19;12.20;62.60
5631;DHT22;2837;50.990;7.124;2023-04-25T16:43:45;12.30;62.50
5631;DHT22;2837;50.990;7.124;2023-04-25T16:46:10;12.40;60.70
5631;DHT22;2837;50.990;7.124;2023-04-25T16:48:36;12.20;61.40
5631;DHT22;2837;50.990;7.124;2023-04-25T16:51:01;12.20;61.00
5631;DHT22;2837;50.990;7.124;2023-04-25T16:53:27;12.10;60.10
5631;DHT22;2837;50.990;7.124;2023-04-25T16:55:53;12.10;60.00
5631;DHT22;2837;50.990;7.124;2023-04-25T16:58:19;12.00;59.60
5631;DHT22;2837;50.990;7.124;2023-04-25T17:00:44;11.90;60.90
5631;DHT22;2837;50.990;7.124;2023-04-25T17:03:11;11.90;62.40
5631;DHT22;2837;50.990;7.124;2023-04-25T17:05:37;11.90;63.00
5631;DHT22;2837;50.990;7.124;2023-04-25T17:08:02;11.90;62.60
5631;DHT22;2837;50.990;7.124;2023-04-25T17:10:29;11.90;64.30
5631;DHT22;2837;50.990;7.124;2023-04-25T17:12:55;11.90;63.90
5631;DHT22;2837;50.990;7.124;2023-04-25T17:15:20;12.10;63.90
5631;DHT22;2837;50.990;7.124;2023-04-25T17:17:46;12.80;63.70
5631;DHT22;2837;50.990;7.124;2023-04-25T17:20:12;12.10;62.40
5631;DHT22;2837;50.990;7.124;2023-04-25T17:22:40;12.10;62.00
5631;DHT22;2837;50.990;7.124;2023-04-25T17:25:07;12.10;61.00
5631;DHT22;2837;50.990;7.124;2023-04-25T17:27:34;12.10;61.80
5631;DHT22;2837;50.990;7.124;2023-04-25T17:30:00;12.10;61.00
5631;DHT22;2837;50.990;7.124;2023-04-25T17:32:27;12.10;61.10
5631;DHT22;2837;50.990;7.124;2023-04-25T17:34:53;12.00;62.20
5631;DHT22;2837;50.990;7.124;2023-04-25T17:37:19;12.00;63.00
5631;DHT22;2837;50.990;7.124;2023-04-25T17:39:45;12.00;63.50
5631;DHT22;2837;50.990;7.124;2023-04-25T17:42:11;12.00;64.00
5631;DHT22;2837;50.990;7.124;2023-04-25T17:44:41;12.70;63.90
5631;DHT22;2837;50.990;7.124;2023-04-25T17:47:07;12.00;63.90
5631;DHT22;2837;50.990;7.124;2023-04-25T17:49:34;12.00;62.30
5631;DHT22;2837;50.990;7.124;2023-04-25T17:52:00;11.90;61.50
5631;DHT22;2837;50.990;7.124;2023-04-25T17:54:26;11.80;61.90
5631;DHT22;2837;50.990;7.124;2023-04-25T17:56:52;12.30;61.60
5631;DHT22;2837;50.990;7.124;2023-04-25T17:59:19;11.70;61.60
5631;DHT22;2837;50.990;7.124;2023-04-25T18:01:45;12.70;62.50
5631;DHT22;2837;50.990;7.124;2023-04-25T18:04:11;11.70;61.70
5631;DHT22;2837;50.990;7.124;2023-04-25T18:06:36;11.70;60.30
5631;DHT22;2837;50.990;7.124;2023-04-25T18:09:02;11.60;60.60
5631;DHT22;2837;50.990;7.124;2023-04-25T18:11:28;11.60;60.00
5631;DHT22;2837;50.990;7.124;2023-04-25T18:13:54;11.50;60.10
5631;DHT22;2837;50.990;7.124;2023-04-25T18:16:20;11.50;59.40
5631;DHT22;2837;50.990;7.124;2023-04-25T18:18:47;11.40;59.20
5631;DHT22;2837;50.990;7.124;2023-04-25T18:21:20;11.40;59.20
5631;DHT22;2837;50.990;7.124;2023-04-25T18:23:46;11.40;59.60
5631;DHT22;2837;50.990;7.124;2023-04-25T18:26:12;11.40;59.80
5631;DHT22;2837;50.990;7.124;2023-04-25T18:28:37;11.40;59.80
5631;DHT22;2837;50.990;7.124;2023-04-25T18:31:03;11.30;59.70
5631;DHT22;2837;50.990;7.124;2023-04-25T18:33:30;11.30;60.20
5631;DHT22;2837;50.990;7.124;2023-04-25T18:35:56;11.20;60.80
5631;DHT22;2837;50.990;7.124;2023-04-25T18:38:23;11.20;60.90
5631;DHT22;2837;50.990;7.124;2023-04-25T18:40:49;11.20;61.30
5631;DHT22;2837;50.990;7.124;2023-04-25T18:43:14;11.40;62.10
5631;DHT22;2837;50.990;7.124;2023-04-25T18:45:40;11.10;61.50
5631;DHT22;2837;50.990;7.124;2023-04-25T18:48:06;11.40;62.20
5631;DHT22;2837;50.990;7.124;2023-04-25T18:50:31;11.00;61.80
5631;DHT22;2837;50.990;7.124;2023-04-25T18:52:58;11.00;62.60
5631;DHT22;2837;50.990;7.124;2023-04-25T18:55:24;11.50;62.70
5631;DHT22;2837;50.990;7.124;2023-04-25T18:57:50;11.00;63.20
5631;DHT22;2837;50.990;7.124;2023-04-25T19:00:16;10.90;63.10
5631;DHT22;2837;50.990;7.124;2023-04-25T19:02:41;10.90;62.40
5631;DHT22;2837;50.990;7.124;2023-04-25T19:05:07;10.90;63.40
5631;DHT22;2837;50.990;7.124;2023-04-25T19:07:34;10.90;63.20
5631;DHT22;2837;50.990;7.124;2023-04-25T19:10:00;10.90;64.20
5631;DHT22;2837;50.990;7.124;2023-04-25T19:12:25;10.90;65.70
5631;DHT22;2837;50.990;7.124;2023-04-25T19:14:51;11.00;65.40
5631;DHT22;2837;50.990;7.124;2023-04-25T19:17:17;11.00;63.50
5631;DHT22;2837;50.990;7.124;2023-04-25T19:19:43;11.00;63.40
5631;DHT22;2837;50.990;7.124;2023-04-25T19:22:08;11.00;63.50
5631;DHT22;2837;50.990;7.124;2023-04-25T19:24:34;11.00;63.70
5631;DHT22;2837;50.990;7.124;2023-04-25T19:27:00;10.90;64.20
5631;DHT22;2837;50.990;7.124;2023-04-25T19:29:25;11.00;63.70
5631;DHT22;2837;50.990;7.124;2023-04-25T19:31:53;10.90;64.40
5631;DHT22;2837;50.990;7.124;2023-04-25T19:34:18;10.90;64.50
5631;DHT22;2837;50.990;7.124;2023-04-25T19:36:44;10.90;65.20
5631;DHT22;2837;50.990;7.124;2023-04-25T19:39:10;10.90;64.70
5631;DHT22;2837;50.990;7.124;2023-04-25T19:41:37;10.90;65.60
5631;DHT22;2837;50.990;7.124;2023-04-25T19:44:07;11.00;64.80
5631;DHT22;2837;50.990;7.124;2023-04-25T19:46:33;10.80;64.30
5631;DHT22;2837;50.990;7.124;2023-04-25T19:48:59;10.70;64.70
5631;DHT22;2837;50.990;7.124;2023-04-25T19:51:26;11.60;66.30
5631;DHT22;2837;50.990;7.124;2023-04-25T19:53:52;10.70;66.00
5631;DHT22;2837;50.990;7.124;2023-04-25T19:56:19;10.70;67.10
5631;DHT22;2837;50.990;7.124;2023-04-25T19:58:45;10.70;67.00
5631;DHT22;2837;50.990;7.124;2023-04-25T20:01:12;10.60;68.00
5631;DHT22;2837;50.990;7.124;2023-04-25T20:03:38;10.60;69.90
5631;DHT22;2837;50.990;7.124;2023-04-25T20:06:04;10.60;70.90
5631;DHT22;2837;50.990;7.124;2023-04-25T20:08:30;10.50;70.50
5631;DHT22;2837;50.990;7.124;2023-04-25T20:10:55;10.50;71.60
5631;DHT22;2837;50.990;7.124;2023-04-25T20:13:21;10.50;72.10
5631;DHT22;2837;50.990;7.124;2023-04-25T20:15:47;10.50;73.80
5631;DHT22;2837;50.990;7.124;2023-04-25T20:18:12;10.40;75.60
5631;DHT22;2837;50.990;7.124;2023-04-25T20:20:38;10.30;79.20
5631;DHT22;2837;50.990;7.124;2023-04-25T20:23:03;10.30;90.40
5631;DHT22;2837;50.990;7.124;2023-04-25T20:25:29;10.20;91.10
5631;DHT22;2837;50.990;7.124;2023-04-25T20:27:55;10.30;91.40
5631;DHT22;2837;50.990;7.124;2023-04-25T20:30:21;10.20;91.40
5631;DHT22;2837;50.990;7.124;2023-04-25T20:32:46;10.20;92.90
5631;DHT22;2837;50.990;7.124;2023-04-25T20:35:12;10.20;97.30
5631;DHT22;2837;50.990;7.124;2023-04-25T20:37:38;10.10;95.70
5631;DHT22;2837;50.990;7.124;2023-04-25T20:40:06;10.20;93.80
5631;DHT22;2837;50.990;7.124;2023-04-25T20:42:32;10.20;92.30
5631;DHT22;2837;50.990;7.124;2023-04-25T20:44:58;10.10;94.90
5631;DHT22;2837;50.990;7.124;2023-04-25T20:47:24;10.10;99.90
5631;DHT22;2837;50.990;7.124;2023-04-25T20:49:49;10.00;99.90
5631;DHT22;2837;50.990;7.124;2023-04-25T20:52:15;10.00;99.90
5631;DHT22;2837;50.990;7.124;2023-04-25T20:54:41;10.00;99.90
5631;DHT22;2837;50.990;7.124;2023-04-25T20:57:07;10.00;99.90
5631;DHT22;2837;50.990;7.124;2023-04-25T20:59:33;10.00;99.90
